Observations for LONDON GATWICK ARPT, United Kingdom (EGKK)

EGKK 180250Z 09002KT 7000 FEW011 M00/M01 Q1023  
EGKK 180220Z VRB02KT 8000 FEW014 M00/M00 Q1023  
EGKK 180150Z 06002KT 8000 FEW013 M00/M01 Q1023  
EGKK 180120Z 10002KT 9000 FEW014 00/M00 Q1023   
EGKK 180050Z 10003KT 9000 FEW019 01/00 Q1023
EGKK 180020Z 07004KT 9000 FEW018 00/M01 Q1023   
EGKK 172350Z 12002KT 9000 FEW019 02/01 Q1023
EGKK 172320Z VRB02KT CAVOK 04/03 Q1023  
EGKK 172250Z 17003KT CAVOK 04/03 Q1023  
EGKK 172220Z 18003KT 9999 FEW031 04/03 Q1023
EGKK 172150Z VRB01KT CAVOK 04/03 Q1023  
EGKK 172120Z VRB02KT 9999 SCT038 05/03 Q1023
EGKK 172050Z 18003KT 9999 BKN041 05/03 Q1023
EGKK 172020Z 16002KT 9999 SCT041 04/03 Q1023
EGKK 171950Z 24002KT 9999 SCT047 04/02 Q1023
EGKK 171920Z 17004KT CAVOK 05/02 Q1023  
EGKK 171850Z VRB03KT CAVOK 05/02 Q1023  
EGKK 171820Z 20004KT CAVOK 06/02 Q1023  
EGKK 171750Z 21005KT CAVOK 06/02 Q1022  
EGKK 171720Z 21005KT CAVOK 07/02 Q1022  
EGKK 171650Z 22006KT 9999 FEW031 08/02 Q1022
EGKK 171620Z 21006KT 150V260 9999 FEW033 09/02 Q1022
EGKK 171550Z 21005KT 9999 FEW041 08/01 Q1022
EGKK 171520Z 22004KT 150V250 9999 FEW046 10/01 Q1022
EGKK 171450Z 23007KT 180V270 9999 FEW042 10/00 Q1022
EGKK 171420Z 23006KT 180V280 9999 FEW039 10/00 Q1022
EGKK 171350Z 25005KT 180V330 9999 FEW040 10/01 Q1022
EGKK 171320Z 25005KT 210V330 9999 FEW040 09/02 Q1022
EGKK 171250Z VRB01KT 9999 FEW035 10/02 Q1022
EGKK 171220Z VRB04KT 9999 FEW034 08/01 Q1022
EGKK 171150Z VRB01KT CAVOK 08/02 Q1022  
EGKK 171120Z VRB02KT CAVOK 09/03 Q1022  
EGKK 171050Z VRB02KT CAVOK 08/04 Q1022  
EGKK 171020Z VRB02KT 9999 FEW017 05/04 Q1022
EGKK 170950Z VRB02KT 9000 NSC 04/04 Q1022   
EGKK 170920Z 09002KT 7000 NSC 03/02 Q1021   
EGKK 170850Z VRB01KT 4500 VCFG FEW008 02/01 Q1021   
EGKK 170820Z 12001KT 4500 0600SE R08R/1400 BCFG FEW002 M01/M01 Q1021
EGKK 170750Z 11002KT 3500 0600S R08R/P1500 BCFG FEW002 M01/M01 Q1021
EGKK 170720Z 11003KT 2500 0800SE R08R/P1500 BCFG FEW004 M00/M00 Q1021   
EGKK 170650Z VRB01KT 2000 0800SE R08R/P1500 BR BCFG FEW001 M00/M01 Q1021
EGKK 170620Z 09003KT 4000 1800SE BR PRFG NSC M00/M00 Q1021  
EGKK 170550Z 07003KT 3500 BR NSC 00/00 Q1021
EGKK 170520Z 05002KT 4000 BR NSC 01/01 Q1021
EGKK 170450Z 06003KT 5000 BR NSC 00/00 Q1021
EGKK 170420Z 09002KT 9999 4000E VCFG NSC 01/00 Q1021
EGKK 170350Z 08003KT 9999 3000E VCFG NSC 01/00 Q1021
EGKK 170320Z VRB03KT 8000 NSC 01/01 Q1021   
EGKK 170250Z 06003KT CAVOK 01/00 Q1021  
EGKK 170220Z 07002KT CAVOK 01/00 Q1021